createdAt,value
2017-12-09T00:00:04.954Z,68.32
2017-12-09T00:00:33.041Z,68.32
2017-12-09T00:01:01.131Z,68.19
2017-12-09T00:01:29.228Z,68.22
2017-12-09T00:01:57.319Z,68.22
2017-12-09T00:02:25.427Z,68.13
2017-12-09T00:02:53.549Z,67.74
2017-12-09T00:03:21.656Z,67.93
2017-12-09T00:03:49.790Z,67.74
2017-12-09T00:04:17.897Z,68.03
2017-12-09T00:04:46.006Z,67.83
2017-12-09T00:05:14.114Z,67.74
2017-12-09T00:05:42.243Z,68.22
2017-12-09T00:06:10.383Z,67.93
2017-12-09T00:06:38.499Z,68.03
2017-12-09T00:07:06.586Z,68.13
2017-12-09T00:07:34.681Z,68.19
2017-12-09T00:08:02.758Z,68.22
2017-12-09T00:08:30.845Z,68.7
2017-12-09T00:08:58.836Z,68.67
2017-12-09T00:09:26.860Z,69.09
2017-12-09T00:09:54.983Z,68.41
2017-12-09T00:10:23.123Z,68.48
2017-12-09T00:10:51.315Z,68.41
2017-12-09T00:11:19.290Z,68.7
2017-12-09T00:11:47.304Z,68.99
2017-12-09T00:12:15.312Z,68.51
2017-12-09T00:12:43.439Z,68.41
2017-12-09T00:13:11.416Z,68.6
2017-12-09T00:13:39.503Z,68.51
2017-12-09T00:14:07.479Z,68.7
2017-12-09T00:14:35.379Z,68.6
2017-12-09T00:15:03.371Z,69.09
2017-12-09T00:15:31.462Z,69.06
2017-12-09T00:15:59.636Z,68.9
2017-12-09T00:16:27.459Z,68.76
2017-12-09T00:16:55.355Z,68.7
2017-12-09T00:17:23.353Z,68.8
2017-12-09T00:17:51.445Z,68.76
2017-12-09T00:18:19.448Z,68.19
2017-12-09T00:18:47.448Z,68.6
2017-12-09T00:19:15.455Z,68.51
2017-12-09T00:19:43.445Z,68.48
2017-12-09T00:20:11.400Z,68.32
2017-12-09T00:20:39.538Z,68.38
2017-12-09T00:21:07.532Z,68.76
2017-12-09T00:21:35.434Z,68.6
2017-12-09T00:22:03.333Z,68.13
2017-12-09T00:22:31.353Z,68.19
2017-12-09T00:22:59.328Z,68.19
2017-12-09T00:23:27.434Z,67.71
2017-12-09T00:23:55.238Z,67.71
2017-12-09T00:24:23.365Z,67.32
2017-12-09T00:24:51.275Z,67.42
2017-12-09T00:25:19.288Z,67.71
2017-12-09T00:25:47.392Z,66.94
2017-12-09T00:26:15.497Z,66.84
2017-12-09T00:26:43.608Z,66.65
2017-12-09T00:27:11.737Z,66.65
2017-12-09T00:27:39.640Z,66.65
2017-12-09T00:28:07.574Z,66.74
2017-12-09T00:28:35.657Z,66.55
2017-12-09T00:29:03.517Z,66.27
2017-12-09T00:29:31.510Z,65.97
2017-12-09T00:29:59.410Z,66.17
2017-12-09T00:30:27.313Z,66.27
2017-12-09T00:30:55.533Z,66.17
2017-12-09T00:31:23.636Z,65.78
2017-12-09T00:31:51.734Z,65.4
2017-12-09T00:32:19.529Z,65.59
2017-12-09T00:32:47.401Z,65.5
2017-12-09T00:33:15.473Z,65.01
2017-12-09T00:33:43.588Z,65.3
2017-12-09T00:34:11.563Z,65.3
2017-12-09T00:34:39.569Z,65.59
2017-12-09T00:35:07.597Z,65.2
2017-12-09T00:35:35.577Z,65.2
2017-12-09T00:36:03.837Z,65.3
2017-12-09T00:36:31.963Z,64.43
2017-12-09T00:37:00.071Z,64.73
2017-12-09T00:37:27.984Z,64.43
2017-12-09T00:37:55.988Z,64.53
2017-12-09T00:38:23.971Z,64.63
2017-12-09T00:38:51.772Z,64.63
2017-12-09T00:39:19.786Z,64.82
2017-12-09T00:39:47.875Z,64.53
2017-12-09T00:40:15.991Z,64.43
2017-12-09T00:40:43.880Z,64.15
2017-12-09T00:41:11.876Z,64.15
2017-12-09T00:41:39.882Z,63.95
2017-12-09T00:42:07.983Z,63.95
2017-12-09T00:42:36.091Z,63.86
2017-12-09T00:43:04.111Z,63.76
2017-12-09T00:43:32.178Z,63.76
2017-12-09T00:44:00.159Z,63.76
2017-12-09T00:44:28.163Z,63.48
2017-12-09T00:44:56.272Z,63.76
2017-12-09T00:45:24.270Z,63.57
2017-12-09T00:45:52.420Z,63.57
2017-12-09T00:46:20.414Z,63.86
2017-12-09T00:46:48.444Z,63.76
2017-12-09T00:47:16.454Z,63.95
2017-12-09T00:47:44.466Z,63.67
2017-12-09T00:48:12.489Z,63.67
2017-12-09T00:48:40.584Z,63.38
2017-12-09T00:49:08.506Z,63.38
2017-12-09T00:49:36.492Z,63.67
2017-12-09T00:50:04.590Z,63.86
2017-12-09T00:50:32.636Z,63.95
2017-12-09T00:51:00.864Z,63.67
2017-12-09T00:51:28.827Z,63.57
2017-12-09T00:51:56.937Z,63.76
2017-12-09T00:52:24.953Z,63.86
2017-12-09T00:52:52.972Z,63.95
2017-12-09T00:53:21.056Z,63.86
2017-12-09T00:53:49.084Z,63.86
2017-12-09T00:54:17.084Z,63.67
2017-12-09T00:54:45.190Z,64.05
2017-12-09T00:55:13.200Z,64.15
2017-12-09T00:55:41.183Z,64.15
2017-12-09T00:56:09.344Z,64.34
2017-12-09T00:56:37.348Z,64.05
2017-12-09T00:57:05.439Z,64.34
2017-12-09T00:57:33.534Z,64.25
2017-12-09T00:58:01.544Z,63.95
2017-12-09T00:58:29.433Z,64.15
2017-12-09T00:58:57.541Z,64.25
2017-12-09T00:59:25.629Z,64.05
2017-12-09T00:59:53.549Z,64.15
2017-12-09T01:00:21.563Z,64.34
2017-12-09T01:00:49.716Z,64.15
2017-12-09T01:01:17.891Z,64.25
2017-12-09T01:01:45.921Z,64.53
2017-12-09T01:02:13.923Z,64.05
2017-12-09T01:02:41.930Z,64.25
2017-12-09T01:03:09.955Z,64.25
2017-12-09T01:03:37.872Z,64.15
2017-12-09T01:04:05.792Z,64.34
2017-12-09T01:04:33.880Z,64.15
2017-12-09T01:05:01.874Z,64.25
2017-12-09T01:05:29.689Z,64.15
2017-12-09T01:05:57.700Z,64.43
2017-12-09T01:06:25.950Z,64.53
2017-12-09T01:06:54.055Z,64.15
2017-12-09T01:07:22.145Z,64.25
2017-12-09T01:07:50.267Z,64.15
2017-12-09T01:08:18.164Z,64.53
2017-12-09T01:08:46.160Z,64.05
2017-12-09T01:09:14.177Z,64.25
2017-12-09T01:09:42.168Z,64.34
2017-12-09T01:10:10.166Z,64.15
2017-12-09T01:10:38.269Z,63.86
2017-12-09T01:11:06.311Z,63.76
2017-12-09T01:11:34.292Z,63.76
2017-12-09T01:12:02.305Z,63.76
2017-12-09T01:12:30.323Z,63.48
2017-12-09T01:12:58.332Z,63.48
2017-12-09T01:13:26.437Z,63.57
2017-12-09T01:13:54.534Z,63.67
2017-12-09T01:14:22.669Z,63.57
2017-12-09T01:14:50.768Z,63.09
2017-12-09T01:15:18.798Z,62.8
2017-12-09T01:15:46.892Z,63.15
2017-12-09T01:16:15.150Z,63.28
2017-12-09T01:16:43.257Z,63.38
2017-12-09T01:17:11.187Z,63.09
2017-12-09T01:17:39.254Z,63.09
2017-12-09T01:18:07.353Z,63.28
2017-12-09T01:18:35.490Z,63.38
2017-12-09T01:19:03.591Z,62.99
2017-12-09T01:19:31.616Z,62.8
2017-12-09T01:19:59.584Z,64.15
2017-12-09T01:20:27.588Z,62.99
2017-12-09T01:20:55.703Z,62.99
2017-12-09T01:21:23.884Z,63.28
2017-12-09T01:21:51.897Z,62.8
2017-12-09T01:22:19.826Z,63.09
2017-12-09T01:22:47.899Z,62.99
2017-12-09T01:23:15.978Z,62.58
2017-12-09T01:23:43.975Z,63.64
2017-12-09T01:24:11.852Z,62.77
2017-12-09T01:24:39.854Z,63.18
2017-12-09T01:25:07.770Z,62.96
2017-12-09T01:25:35.865Z,63.15
2017-12-09T01:26:03.854Z,62.61
2017-12-09T01:26:31.858Z,62.48
2017-12-09T01:26:59.890Z,62.9
2017-12-09T01:27:27.895Z,62.61
2017-12-09T01:27:55.884Z,62.8
2017-12-09T01:28:23.990Z,62.99
2017-12-09T01:28:51.981Z,62.51
2017-12-09T01:29:19.982Z,62.41
2017-12-09T01:29:47.980Z,62.51
2017-12-09T01:30:16.075Z,62.41
2017-12-09T01:30:43.990Z,62.71
2017-12-09T01:31:12.018Z,62.48
2017-12-09T01:31:40.129Z,62.68
2017-12-09T01:32:08.050Z,62.68
2017-12-09T01:32:36.133Z,62.8
2017-12-09T01:33:04.241Z,62.77
2017-12-09T01:33:32.245Z,62.77
2017-12-09T01:34:00.216Z,62.68
2017-12-09T01:34:28.322Z,62.48
2017-12-09T01:34:56.340Z,62.58
2017-12-09T01:35:24.424Z,62.19
2017-12-09T01:35:52.403Z,62.48
2017-12-09T01:36:20.319Z,62.68
2017-12-09T01:36:48.330Z,62.68
2017-12-09T01:37:16.237Z,62.77
2017-12-09T01:37:44.140Z,62.48
2017-12-09T01:38:12.228Z,62.19
2017-12-09T01:38:40.205Z,62.1
2017-12-09T01:39:08.272Z,62.58
2017-12-09T01:39:36.279Z,62.29
2017-12-09T01:40:04.262Z,61.91
2017-12-09T01:40:32.358Z,61.61
2017-12-09T01:41:00.402Z,61.33
2017-12-09T01:41:28.646Z,61.43
2017-12-09T01:41:56.637Z,61.71
2017-12-09T01:42:24.760Z,61.23
2017-12-09T01:42:52.762Z,61.11
2017-12-09T01:43:20.734Z,61.11
2017-12-09T01:43:48.632Z,61.14
2017-12-09T01:44:16.616Z,60.46
2017-12-09T01:44:44.624Z,60.46
2017-12-09T01:45:12.635Z,60.66
2017-12-09T01:45:40.628Z,60.37
2017-12-09T01:46:08.657Z,60.37
2017-12-09T01:46:36.862Z,60.66
2017-12-09T01:47:04.884Z,60.37
2017-12-09T01:47:32.781Z,60.56
2017-12-09T01:48:00.682Z,60.24
2017-12-09T01:48:28.794Z,60.27
2017-12-09T01:48:56.893Z,60.46
2017-12-09T01:49:24.773Z,60.46
2017-12-09T01:49:52.774Z,60.46
2017-12-09T01:50:20.773Z,60.27
2017-12-09T01:50:48.686Z,60.05
2017-12-09T01:51:16.579Z,60.08
2017-12-09T01:51:44.667Z,59.79
2017-12-09T01:52:12.740Z,60.05
2017-12-09T01:52:40.737Z,60.17
2017-12-09T01:53:08.819Z,59.99
2017-12-09T01:53:36.850Z,60.27
2017-12-09T01:54:04.762Z,59.99
2017-12-09T01:54:32.750Z,60.14
2017-12-09T01:55:00.745Z,60.08
2017-12-09T01:55:28.721Z,59.47
2017-12-09T01:55:56.833Z,59.79
2017-12-09T01:56:24.718Z,59.38
2017-12-09T01:56:52.911Z,59.22
2017-12-09T01:57:20.840Z,59.12
2017-12-09T01:57:48.978Z,59.79
2017-12-09T01:58:16.873Z,59.5
2017-12-09T01:58:44.900Z,59.41
2017-12-09T01:59:12.892Z,59.41
2017-12-09T01:59:40.974Z,59.22
2017-12-09T02:00:09.055Z,58.92
2017-12-09T02:00:37.158Z,59.22
2017-12-09T02:01:05.157Z,59.31
2017-12-09T02:01:33.135Z,59.22
2017-12-09T02:02:00.961Z,59.22
2017-12-09T02:02:28.876Z,59.5
2017-12-09T02:02:56.876Z,59.02
2017-12-09T02:03:24.784Z,59.5
2017-12-09T02:03:52.761Z,59.41
2017-12-09T02:04:20.768Z,59.5
2017-12-09T02:04:48.660Z,59.02
2017-12-09T02:05:16.662Z,59.22
2017-12-09T02:05:44.680Z,58.92
2017-12-09T02:06:12.810Z,59.22
2017-12-09T02:06:40.708Z,59.12
2017-12-09T02:07:08.849Z,59.02
2017-12-09T02:07:36.901Z,59.02
2017-12-09T02:08:05.009Z,59.02
2017-12-09T02:08:33.013Z,58.92
2017-12-09T02:09:01.116Z,58.73
2017-12-09T02:09:29.117Z,58.64
2017-12-09T02:09:57.198Z,58.54
2017-12-09T02:10:25.175Z,58.83
2017-12-09T02:10:53.079Z,58.64
2017-12-09T02:11:21.163Z,58.54
2017-12-09T02:11:49.066Z,58.54
2017-12-09T02:12:17.058Z,58.45
2017-12-09T02:12:45.150Z,58.73
2017-12-09T02:13:13.261Z,58.64
2017-12-09T02:13:41.167Z,58.45
2017-12-09T02:14:09.167Z,58.83
2017-12-09T02:14:37.056Z,58.92
2017-12-09T02:15:05.123Z,58.83
2017-12-09T02:15:33.240Z,58.92
2017-12-09T02:16:01.342Z,58.83
2017-12-09T02:16:29.447Z,58.83
2017-12-09T02:16:57.653Z,58.83
2017-12-09T02:17:25.771Z,58.35
2017-12-09T02:17:53.761Z,58.54
2017-12-09T02:18:21.784Z,58.64
2017-12-09T02:18:49.710Z,58.25
2017-12-09T02:19:17.838Z,58.54
2017-12-09T02:19:45.743Z,58.64
2017-12-09T02:20:13.855Z,58.64
2017-12-09T02:20:41.758Z,58.54
2017-12-09T02:21:09.897Z,58.64
2017-12-09T02:21:37.885Z,58.73
2017-12-09T02:22:06.076Z,58.64
2017-12-09T02:22:34.054Z,58.64
2017-12-09T02:23:02.161Z,58.64
2017-12-09T02:23:30.072Z,58.73
2017-12-09T02:23:58.056Z,58.73
2017-12-09T02:24:26.061Z,58.35
2017-12-09T02:24:54.046Z,58.25
2017-12-09T02:25:22.061Z,58.15
2017-12-09T02:25:50.153Z,58.25
2017-12-09T02:26:18.134Z,58.35
2017-12-09T02:26:46.126Z,57.87
2017-12-09T02:27:14.156Z,58.25
2017-12-09T02:27:42.194Z,58.06
2017-12-09T02:28:10.212Z,58.15
2017-12-09T02:28:38.215Z,57.87
2017-12-09T02:29:06.358Z,57.77
2017-12-09T02:29:34.280Z,57.77
2017-12-09T02:30:02.374Z,57.77
2017-12-09T02:30:30.369Z,57.87
2017-12-09T02:30:58.383Z,57.97
2017-12-09T02:31:26.538Z,57.77
2017-12-09T02:31:54.732Z,58.15
2017-12-09T02:32:22.742Z,57.87
2017-12-09T02:32:50.863Z,57.68
2017-12-09T02:33:18.791Z,58.06
2017-12-09T02:33:46.597Z,58.06
2017-12-09T02:34:14.702Z,58.06
2017-12-09T02:34:42.603Z,57.77
2017-12-09T02:35:10.396Z,58.06
2017-12-09T02:35:38.508Z,57.97
2017-12-09T02:36:06.612Z,57.68
2017-12-09T02:36:34.608Z,57.68
2017-12-09T02:37:02.750Z,57.97
2017-12-09T02:37:30.870Z,57.87
2017-12-09T02:37:58.797Z,57.87
2017-12-09T02:38:26.725Z,57.87
2017-12-09T02:38:54.830Z,57.77
2017-12-09T02:39:22.851Z,57.87
2017-12-09T02:39:50.960Z,57.97
2017-12-09T02:40:19.092Z,57.77
2017-12-09T02:40:46.936Z,57.77
2017-12-09T02:41:14.889Z,57.77
2017-12-09T02:41:42.946Z,57.48
2017-12-09T02:42:11.056Z,57.97
2017-12-09T02:42:38.950Z,58.06
2017-12-09T02:43:07.064Z,57.97
2017-12-09T02:43:35.144Z,57.87
2017-12-09T02:44:03.268Z,58.15
2017-12-09T02:44:31.283Z,57.68
2017-12-09T02:44:59.278Z,57.97
2017-12-09T02:45:27.187Z,57.97
2017-12-09T02:45:54.966Z,57.77
2017-12-09T02:46:22.978Z,57.77
2017-12-09T02:46:50.975Z,57.87
2017-12-09T02:47:19.175Z,57.87
2017-12-09T02:47:47.273Z,57.87
2017-12-09T02:48:15.295Z,57.87
2017-12-09T02:48:43.300Z,57.87
2017-12-09T02:49:11.395Z,57.77
2017-12-09T02:49:39.500Z,57.77
2017-12-09T02:50:07.509Z,57.87
2017-12-09T02:50:35.634Z,57.87
2017-12-09T02:51:03.720Z,57.68
2017-12-09T02:51:31.790Z,57.68
2017-12-09T02:51:59.978Z,57.68
2017-12-09T02:52:27.908Z,57.87
2017-12-09T02:52:55.801Z,57.68
2017-12-09T02:53:23.810Z,58.06
2017-12-09T02:53:51.868Z,57.68
2017-12-09T02:54:19.875Z,58.06
2017-12-09T02:54:47.966Z,57.87
2017-12-09T02:55:15.876Z,57.58
2017-12-09T02:55:43.753Z,57.97
2017-12-09T02:56:11.763Z,57.77
2017-12-09T02:56:39.795Z,57.68
2017-12-09T02:57:07.993Z,57.77
2017-12-09T02:57:36.095Z,57.77
2017-12-09T02:58:04.228Z,57.77
2017-12-09T02:58:32.209Z,57.87
2017-12-09T02:59:00.107Z,58.06
2017-12-09T02:59:28.226Z,57.97
2017-12-09T02:59:56.216Z,57.48
2017-12-09T03:00:24.011Z,57.68
2017-12-09T03:00:51.794Z,57.87
2017-12-09T03:01:19.825Z,57.77
2017-12-09T03:01:47.922Z,57.48
2017-12-09T03:02:16.126Z,57.68
2017-12-09T03:02:44.237Z,57.68
2017-12-09T03:03:12.237Z,57.77
2017-12-09T03:03:40.131Z,57.77
2017-12-09T03:04:08.251Z,57.77
2017-12-09T03:04:36.360Z,57.77
2017-12-09T03:05:04.485Z,57.77
2017-12-09T03:05:32.477Z,57.68
2017-12-09T03:06:00.517Z,57.87
2017-12-09T03:06:28.416Z,57.97
2017-12-09T03:06:56.419Z,57.97
2017-12-09T03:07:24.603Z,57.97
2017-12-09T03:07:52.581Z,57.97
2017-12-09T03:08:20.485Z,57.77
2017-12-09T03:08:48.378Z,57.87
2017-12-09T03:09:16.471Z,58.06
2017-12-09T03:09:44.562Z,57.87
2017-12-09T03:10:12.572Z,58.25
2017-12-09T03:10:40.626Z,58.06
2017-12-09T03:11:08.701Z,58.06
2017-12-09T03:11:36.779Z,58.35
2017-12-09T03:12:04.667Z,58.83
2017-12-09T03:12:32.914Z,58.73
2017-12-09T03:13:00.950Z,59.02
2017-12-09T03:13:28.970Z,58.92
2017-12-09T03:13:56.973Z,59.02
2017-12-09T03:14:25.059Z,59.12
2017-12-09T03:14:52.967Z,58.73
2017-12-09T03:15:20.857Z,58.73
2017-12-09T03:15:48.860Z,58.92
2017-12-09T03:16:16.952Z,59.02
2017-12-09T03:16:45.082Z,58.64
2017-12-09T03:17:13.325Z,58.92
2017-12-09T03:17:41.221Z,59.02
2017-12-09T03:18:09.214Z,59.02
2017-12-09T03:18:37.013Z,58.64
2017-12-09T03:19:05.014Z,58.73
2017-12-09T03:19:33.028Z,58.64
2017-12-09T03:20:01.127Z,58.64
2017-12-09T03:20:29.223Z,58.35
2017-12-09T03:20:57.243Z,58.54
2017-12-09T03:21:25.263Z,58.64
2017-12-09T03:21:53.273Z,58.64
2017-12-09T03:22:21.386Z,58.73
2017-12-09T03:22:49.493Z,59.12
2017-12-09T03:23:17.318Z,58.92
2017-12-09T03:23:45.287Z,59.12
2017-12-09T03:24:13.400Z,58.92
2017-12-09T03:24:41.404Z,58.64
2017-12-09T03:25:09.225Z,58.92
2017-12-09T03:25:37.317Z,58.54
2017-12-09T03:26:05.416Z,58.83
2017-12-09T03:26:33.523Z,58.64
2017-12-09T03:27:01.626Z,58.45
2017-12-09T03:27:29.717Z,58.73
2017-12-09T03:27:57.717Z,58.64
2017-12-09T03:28:25.830Z,58.73
2017-12-09T03:28:53.957Z,58.35
2017-12-09T03:29:22.058Z,58.25
2017-12-09T03:29:50.080Z,58.64
2017-12-09T03:30:18.062Z,58.83
2017-12-09T03:30:46.180Z,58.64
2017-12-09T03:31:14.265Z,58.35
2017-12-09T03:31:42.147Z,58.64
2017-12-09T03:32:10.063Z,58.45
2017-12-09T03:32:38.275Z,58.45
2017-12-09T03:33:06.364Z,58.54
2017-12-09T03:33:34.202Z,58.54
2017-12-09T03:34:02.337Z,58.83
2017-12-09T03:34:30.325Z,58.54
2017-12-09T03:34:58.394Z,58.06
2017-12-09T03:35:26.535Z,57.87
2017-12-09T03:35:54.472Z,57.87
2017-12-09T03:36:22.477Z,58.15
2017-12-09T03:36:50.479Z,57.68
2017-12-09T03:37:18.571Z,57.68
2017-12-09T03:37:46.575Z,58.06
2017-12-09T03:38:14.683Z,57.87
2017-12-09T03:38:42.718Z,58.15
2017-12-09T03:39:10.623Z,58.15
2017-12-09T03:39:38.712Z,57.68
2017-12-09T03:40:06.652Z,57.97
2017-12-09T03:40:34.688Z,58.06
2017-12-09T03:41:02.799Z,57.97
2017-12-09T03:41:30.704Z,58.06
2017-12-09T03:41:58.724Z,57.58
2017-12-09T03:42:26.727Z,57.68
2017-12-09T03:42:54.737Z,57.68
2017-12-09T03:43:22.833Z,57.68
2017-12-09T03:43:50.711Z,57.87
2017-12-09T03:44:18.805Z,57.77
2017-12-09T03:44:46.834Z,57.7
2017-12-09T03:45:14.821Z,57.97
2017-12-09T03:45:42.834Z,58.06
2017-12-09T03:46:10.834Z,58.06
2017-12-09T03:46:38.618Z,58.06
2017-12-09T03:47:06.643Z,57.8
2017-12-09T03:47:34.852Z,58.09
2017-12-09T03:48:02.876Z,57.7
2017-12-09T03:48:30.885Z,57.87
2017-12-09T03:48:58.886Z,57.68
2017-12-09T03:49:26.679Z,57.8
2017-12-09T03:49:54.560Z,57.87
2017-12-09T03:50:22.558Z,57.68
2017-12-09T03:50:50.548Z,58.09
2017-12-09T03:51:18.543Z,57.97
2017-12-09T03:51:46.459Z,57.87
2017-12-09T03:52:14.367Z,57.58
2017-12-09T03:52:42.577Z,57.48
2017-12-09T03:53:10.553Z,57.48
2017-12-09T03:53:38.653Z,57.8
2017-12-09T03:54:06.573Z,57.48
2017-12-09T03:54:34.668Z,57.58
2017-12-09T03:55:02.675Z,57.68
2017-12-09T03:55:30.695Z,57.48
2017-12-09T03:55:58.848Z,57.48
2017-12-09T03:56:26.867Z,57.42
2017-12-09T03:56:54.966Z,57.42
2017-12-09T03:57:22.897Z,57.42
2017-12-09T03:57:51.213Z,57.42
2017-12-09T03:58:19.237Z,57.29
2017-12-09T03:58:47.060Z,57.48
2017-12-09T03:59:15.168Z,57.39
2017-12-09T03:59:43.081Z,57
2017-12-09T04:00:11.174Z,57.42
2017-12-09T04:00:39.283Z,57.13
2017-12-09T04:01:07.282Z,57.13
2017-12-09T04:01:35.316Z,57.22
2017-12-09T04:02:03.430Z,57.48
2017-12-09T04:02:31.451Z,57
2017-12-09T04:02:59.510Z,57.13
2017-12-09T04:03:27.422Z,57.03
2017-12-09T04:03:55.416Z,57.2
2017-12-09T04:04:23.452Z,57.03
2017-12-09T04:04:51.484Z,57.13
2017-12-09T04:05:19.362Z,57.39
2017-12-09T04:05:47.359Z,57.48
2017-12-09T04:06:15.362Z,57.51
2017-12-09T04:06:43.400Z,57.51
2017-12-09T04:07:11.516Z,57.68
2017-12-09T04:07:39.757Z,57.58
2017-12-09T04:08:07.827Z,57.68
2017-12-09T04:08:35.935Z,57.48
2017-12-09T04:09:04.030Z,57.48
2017-12-09T04:09:31.946Z,57.39
2017-12-09T04:10:00.064Z,57.68
2017-12-09T04:10:27.972Z,57.51
2017-12-09T04:10:56.090Z,57.68
2017-12-09T04:11:24.092Z,57.39
2017-12-09T04:11:52.086Z,57.68
2017-12-09T04:12:20.026Z,57.58
2017-12-09T04:12:48.297Z,57.48
2017-12-09T04:13:16.347Z,57.48
2017-12-09T04:13:44.417Z,57.48
2017-12-09T04:14:12.412Z,57.58
2017-12-09T04:14:40.501Z,57.48
2017-12-09T04:15:08.390Z,57.48
2017-12-09T04:15:36.484Z,57.68
2017-12-09T04:16:04.373Z,57.68
2017-12-09T04:16:32.160Z,57.68
2017-12-09T04:17:00.142Z,57.48
2017-12-09T04:17:28.072Z,57.48
2017-12-09T04:17:56.292Z,57.48
2017-12-09T04:18:24.370Z,57.58
2017-12-09T04:18:52.244Z,57.48
2017-12-09T04:19:20.131Z,57.58
2017-12-09T04:19:48.126Z,57.68
2017-12-09T04:20:16.237Z,57.58
2017-12-09T04:20:44.339Z,57.48
2017-12-09T04:21:12.440Z,57.39
2017-12-09T04:21:40.566Z,57.58
2017-12-09T04:22:08.566Z,57.68
2017-12-09T04:22:36.570Z,57.58
2017-12-09T04:23:04.827Z,57.39
2017-12-09T04:23:32.814Z,57.68
2017-12-09T04:24:00.799Z,57.6
2017-12-09T04:24:28.815Z,57.48
2017-12-09T04:24:56.752Z,57.7
2017-12-09T04:25:24.742Z,57.68
2017-12-09T04:25:52.780Z,57.48
2017-12-09T04:26:20.769Z,57.6
2017-12-09T04:26:48.780Z,57.58
2017-12-09T04:27:16.808Z,57.39
2017-12-09T04:27:44.796Z,57.48
2017-12-09T04:28:12.987Z,57.68
2017-12-09T04:28:41.103Z,57.48
2017-12-09T04:29:09.185Z,57.58
2017-12-09T04:29:37.306Z,57.68
2017-12-09T04:30:05.247Z,57.42
2017-12-09T04:30:33.255Z,57.51
2017-12-09T04:31:01.208Z,57.68
2017-12-09T04:31:29.233Z,57.58
2017-12-09T04:31:57.203Z,57.48
2017-12-09T04:32:25.074Z,57.48
2017-12-09T04:32:53.171Z,57.48
2017-12-09T04:33:21.164Z,57.39
2017-12-09T04:33:49.146Z,57.87
2017-12-09T04:34:16.955Z,57.7
2017-12-09T04:34:44.955Z,57.97
2017-12-09T04:35:13.056Z,57.97
2017-12-09T04:35:41.141Z,57.68
2017-12-09T04:36:09.151Z,57.77
2017-12-09T04:36:37.238Z,57.68
2017-12-09T04:37:05.335Z,57.9
2017-12-09T04:37:33.426Z,57.68
2017-12-09T04:38:01.481Z,57.77
2017-12-09T04:38:29.592Z,57.97
2017-12-09T04:38:57.580Z,57.97
2017-12-09T04:39:25.568Z,57.97
2017-12-09T04:39:53.656Z,57.97
2017-12-09T04:40:21.747Z,57.87
2017-12-09T04:40:49.552Z,58.06
2017-12-09T04:41:17.580Z,57.39
2017-12-09T04:41:45.664Z,57.39
2017-12-09T04:42:13.761Z,57.77
2017-12-09T04:42:41.764Z,57.39
2017-12-09T04:43:09.892Z,57.48
2017-12-09T04:43:37.789Z,57.68
2017-12-09T04:44:05.910Z,57.68
2017-12-09T04:44:34.033Z,57.87
2017-12-09T04:45:01.944Z,57.87
2017-12-09T04:45:30.044Z,57.87
2017-12-09T04:45:58.046Z,57.58
2017-12-09T04:46:26.065Z,57.87
2017-12-09T04:46:54.030Z,57.87
2017-12-09T04:47:22.042Z,57.48
2017-12-09T04:47:50.144Z,57.39
2017-12-09T04:48:18.314Z,57.68
2017-12-09T04:48:46.301Z,57.68
2017-12-09T04:49:14.404Z,57.58
2017-12-09T04:49:42.482Z,57.48
2017-12-09T04:50:10.560Z,57.68
2017-12-09T04:50:38.654Z,57.68
2017-12-09T04:51:06.658Z,57.68
2017-12-09T04:51:34.670Z,57.48
2017-12-09T04:52:02.774Z,57.39
2017-12-09T04:52:30.882Z,57.58
2017-12-09T04:52:58.891Z,57.39
2017-12-09T04:53:26.979Z,57.39
2017-12-09T04:53:54.901Z,57
2017-12-09T04:54:22.995Z,57.1
2017-12-09T04:54:51.039Z,57
2017-12-09T04:55:18.922Z,57.48
2017-12-09T04:55:47.016Z,57.29
2017-12-09T04:56:15.104Z,57.39
2017-12-09T04:56:43.083Z,57.29
2017-12-09T04:57:11.226Z,57
2017-12-09T04:57:39.233Z,56.91
2017-12-09T04:58:07.281Z,56.81
2017-12-09T04:58:35.279Z,57.1
2017-12-09T04:59:03.284Z,57
2017-12-09T04:59:31.280Z,57
2017-12-09T04:59:59.362Z,56.81
2017-12-09T05:00:27.337Z,57
2017-12-09T05:00:55.348Z,56.91
2017-12-09T05:01:23.355Z,56.91
2017-12-09T05:01:51.473Z,57.1
2017-12-09T05:02:19.342Z,57.1
2017-12-09T05:02:47.316Z,57.1
2017-12-09T05:03:15.433Z,57.2
2017-12-09T05:03:43.556Z,56.71
2017-12-09T05:04:11.574Z,56.71
2017-12-09T05:04:39.594Z,56.43
2017-12-09T05:05:07.668Z,56.81
2017-12-09T05:05:35.667Z,56.33
2017-12-09T05:06:03.667Z,56.52
2017-12-09T05:06:31.640Z,56.33
2017-12-09T05:06:59.530Z,56.43
2017-12-09T05:07:27.607Z,56.33
2017-12-09T05:07:55.638Z,56.43
2017-12-09T05:08:23.736Z,56.33
2017-12-09T05:08:51.837Z,56.52
2017-12-09T05:09:19.841Z,56.23
2017-12-09T05:09:47.969Z,56.23
2017-12-09T05:10:16.077Z,56.43
2017-12-09T05:10:44.189Z,56.62
2017-12-09T05:11:12.180Z,56.52
2017-12-09T05:11:40.166Z,56.52
2017-12-09T05:12:08.078Z,56.43
2017-12-09T05:12:36.165Z,56.43
2017-12-09T05:13:04.168Z,56.52
2017-12-09T05:13:32.409Z,56.23
2017-12-09T05:14:00.398Z,56.14
2017-12-09T05:14:28.393Z,56.43
2017-12-09T05:14:56.483Z,56.43
2017-12-09T05:15:24.489Z,56.43
2017-12-09T05:15:52.491Z,56.52
2017-12-09T05:16:20.410Z,56.62
2017-12-09T05:16:48.506Z,56.62
2017-12-09T05:17:16.608Z,56.71
2017-12-09T05:17:44.684Z,56.71
2017-12-09T05:18:12.678Z,56.71
2017-12-09T05:18:40.627Z,56.62
2017-12-09T05:19:08.715Z,56.71
2017-12-09T05:19:36.718Z,56.62
2017-12-09T05:20:04.710Z,56.62
2017-12-09T05:20:32.629Z,56.33
2017-12-09T05:21:00.636Z,56.52
2017-12-09T05:21:28.734Z,56.52
2017-12-09T05:21:56.833Z,56.52
2017-12-09T05:22:24.952Z,56.43
2017-12-09T05:22:53.043Z,56.33
2017-12-09T05:23:20.954Z,56.33
2017-12-09T05:23:49.074Z,56.43
2017-12-09T05:24:17.074Z,56.33
2017-12-09T05:24:45.180Z,56.52
2017-12-09T05:25:13.311Z,56.52
2017-12-09T05:25:41.415Z,56.33
2017-12-09T05:26:09.423Z,56.33
2017-12-09T05:26:37.346Z,56.33
2017-12-09T05:27:05.429Z,56.62
2017-12-09T05:27:33.546Z,56.62
2017-12-09T05:28:01.449Z,57.1
2017-12-09T05:28:29.454Z,57.1
2017-12-09T05:28:57.471Z,57.2
2017-12-09T05:29:25.579Z,57.1
2017-12-09T05:29:53.683Z,57.1
2017-12-09T05:30:21.570Z,57.1
2017-12-09T05:30:49.604Z,57.2
2017-12-09T05:31:17.412Z,57.1
2017-12-09T05:31:45.408Z,57
2017-12-09T05:32:13.544Z,57.1
2017-12-09T05:32:41.581Z,56.62
2017-12-09T05:33:09.729Z,56.62
2017-12-09T05:33:37.643Z,56.62
2017-12-09T05:34:05.659Z,57.1
2017-12-09T05:34:33.754Z,57.2
2017-12-09T05:35:01.885Z,57.1
2017-12-09T05:35:29.912Z,57.2
2017-12-09T05:35:58.041Z,56.71
2017-12-09T05:36:26.152Z,56.62
2017-12-09T05:36:54.047Z,56.43
2017-12-09T05:37:22.053Z,56.52
2017-12-09T05:37:50.052Z,56.43
2017-12-09T05:38:17.939Z,56.62
2017-12-09T05:38:46.058Z,56.52
2017-12-09T05:39:13.998Z,56.52
2017-12-09T05:39:41.925Z,56.43
2017-12-09T05:40:09.854Z,56.43
2017-12-09T05:40:37.846Z,56.71
2017-12-09T05:41:05.952Z,56.43
2017-12-09T05:41:33.960Z,56.43
2017-12-09T05:42:02.060Z,56.52
2017-12-09T05:42:30.035Z,57.1
2017-12-09T05:42:58.029Z,57
2017-12-09T05:43:26.157Z,56.71
2017-12-09T05:43:54.247Z,56.81
2017-12-09T05:44:22.250Z,56.91
2017-12-09T05:44:50.367Z,56.91
2017-12-09T05:45:18.470Z,56.81
2017-12-09T05:45:46.478Z,57.39
2017-12-09T05:46:14.343Z,57.29
2017-12-09T05:46:42.365Z,57.29
2017-12-09T05:47:10.285Z,57.29
2017-12-09T05:47:38.390Z,57
2017-12-09T05:48:06.428Z,57.1
2017-12-09T05:48:34.560Z,57.39
2017-12-09T05:49:02.673Z,57.68
2017-12-09T05:49:30.679Z,57.68
2017-12-09T05:49:58.583Z,57.58
2017-12-09T05:50:26.603Z,57.68
2017-12-09T05:50:54.715Z,57.58
2017-12-09T05:51:22.823Z,57.68
2017-12-09T05:51:50.930Z,57.68
2017-12-09T05:52:19.035Z,57.48
2017-12-09T05:52:47.125Z,57.29
2017-12-09T05:53:15.139Z,57.29
2017-12-09T05:53:43.298Z,57.58
2017-12-09T05:54:11.315Z,57.68
2017-12-09T05:54:39.423Z,57.68
2017-12-09T05:55:07.295Z,57.68
2017-12-09T05:55:35.261Z,57.48
2017-12-09T05:56:03.341Z,57.48
2017-12-09T05:56:31.366Z,57.58
2017-12-09T05:56:59.280Z,57.39
2017-12-09T05:57:27.393Z,57.39
2017-12-09T05:57:55.413Z,57.39
2017-12-09T05:58:23.516Z,57.39
2017-12-09T05:58:51.589Z,57.68
2017-12-09T05:59:19.476Z,57.68
2017-12-09T05:59:47.450Z,57.39
2017-12-09T06:00:15.448Z,57.58
2017-12-09T06:00:43.528Z,57.48
2017-12-09T06:01:11.529Z,57.68
2017-12-09T06:01:39.612Z,57.6
2017-12-09T06:02:07.568Z,57.58